Time;durP1;ratioP1;P1;durP2;ratioP2;P2;SDS_P1;SDS_P2;PMS_P1;PMS_P2;Temp;Humidity;BMP_temperature;BMP_pressure;BME280_temperature;BME280_humidity;BME280_pressure;Samples;Min_cycle;Max_cycle;Signal;HPM_P1;HPM_P2
2022/03/03 00:02:15;;;;;;;47.20;22.83;;;;;;;10.33;37.02;101095.22;5072888;28;20048;-80
2022/03/03 00:05:00;;;;;;;28.52;16.33;;;;;;;10.21;37.60;101101.16;5075476;28;20051;-82
2022/03/03 00:07:45;;;;;;;34.95;17.63;;;;;;;10.51;37.14;101099.75;5073767;28;20044;-81
2022/03/03 00:10:30;;;;;;;29.90;16.75;;;;;;;10.50;38.77;101098.13;5092981;28;20028;-84
2022/03/03 00:13:15;;;;;;;;;;;;;;;10.23;39.38;101102.50;5079021;28;20489;-83
2022/03/03 00:16:03;;;;;;;39.40;20.65;;;;;;;10.52;37.66;101099.44;5078123;28;19912;-85
2022/03/03 00:18:48;;;;;;;39.63;23.13;;;;;;;10.38;37.88;101095.94;5078434;28;20489;-81
2022/03/03 00:21:32;;;;;;;31.35;17.85;;;;;;;10.46;37.87;101100.66;5081623;28;20509;-83
2022/03/03 00:24:17;;;;;;;39.80;21.65;;;;;;;10.56;38.01;101099.63;5079496;28;20405;-83
2022/03/03 00:27:03;;;;;;;28.35;16.50;;;;;;;10.50;37.68;101106.28;5089887;28;20044;-82
2022/03/03 00:29:48;;;;;;;40.95;24.00;;;;;;;10.38;37.71;101106.00;5078166;28;20581;-82
2022/03/03 00:32:40;;;;;;;38.47;17.55;;;;;;;10.17;38.99;101113.75;5089631;28;20040;-82
2022/03/03 00:35:25;;;;;;;40.35;21.45;;;;;;;10.49;38.41;101096.53;5092384;28;20044;-84
2022/03/03 00:38:10;;;;;;;29.25;18.10;;;;;;;10.41;38.38;101105.41;5072498;28;20048;-82
2022/03/03 00:40:55;;;;;;;29.38;17.30;;;;;;;10.14;40.13;101098.03;5078428;28;20040;-81
2022/03/03 00:43:40;;;;;;;33.15;18.35;;;;;;;10.20;40.10;101094.97;5072253;28;20489;-82
2022/03/03 00:46:25;;;;;;;39.13;22.58;;;;;;;10.16;38.91;101096.66;5076269;28;20048;-83
2022/03/03 00:49:10;;;;;;;27.83;17.33;;;;;;;10.14;39.08;101093.41;5075299;28;20045;-85
2022/03/03 00:51:55;;;;;;;37.10;17.80;;;;;;;10.17;38.77;101100.16;5078381;28;20044;-83
2022/03/03 00:54:39;;;;;;;41.03;25.00;;;;;;;10.11;38.79;101091.28;5071024;28;20516;-81
2022/03/03 00:57:24;;;;;;;42.10;18.92;;;;;;;10.16;38.82;101095.84;5070841;28;20316;-81
2022/03/03 01:00:10;;;;;;;39.70;18.17;;;;;;;10.06;38.83;101090.59;5052825;28;20045;-81
2022/03/03 01:02:54;;;;;;;39.22;22.85;;;;;;;10.16;39.05;101093.94;5051681;28;20041;-81
2022/03/03 01:05:39;;;;;;;37.05;21.10;;;;;;;10.05;39.54;101087.09;5056232;28;20406;-83
2022/03/03 01:08:24;;;;;;;31.88;17.77;;;;;;;10.11;39.00;101085.03;5071254;28;20040;-81
2022/03/03 01:11:09;;;;;;;46.25;22.63;;;;;;;10.03;40.70;101081.13;5071322;28;20040;-84
2022/03/03 01:13:54;;;;;;;34.83;18.58;;;;;;;9.96;40.59;101080.72;5071661;28;20048;-82
2022/03/03 01:16:39;;;;;;;32.33;18.00;;;;;;;10.01;40.06;101082.53;5071191;28;20044;-82
2022/03/03 01:19:23;;;;;;;30.90;18.02;;;;;;;10.03;40.11;101078.41;5096060;28;20044;-84
2022/03/03 01:22:09;;;;;;;29.30;17.02;;;;;;;9.90;40.95;101073.81;5079787;28;20036;-82
2022/03/03 01:24:53;;;;;;;30.25;19.42;;;;;;;9.78;41.30;101074.28;5077528;28;20048;-84
2022/03/03 01:27:39;;;;;;;29.92;17.60;;;;;;;9.89;41.94;101077.63;5076993;28;20044;-81
2022/03/03 01:30:24;;;;;;;30.98;17.52;;;;;;;9.88;40.97;101070.56;5080053;28;20051;-82
2022/03/03 01:33:09;;;;;;;45.08;21.50;;;;;;;9.65;41.63;101069.63;5075705;28;20040;-83
2022/03/03 01:35:54;;;;;;;29.08;17.08;;;;;;;9.74;41.52;101069.78;5073209;28;20041;-83
2022/03/03 01:38:39;;;;;;;29.05;18.05;;;;;;;9.71;41.72;101062.19;5061244;28;20044;-82
2022/03/03 01:41:24;;;;;;;31.27;17.83;;;;;;;9.63;41.94;101071.06;5057854;28;20041;-83
2022/03/03 01:44:09;;;;;;;33.25;17.58;;;;;;;9.74;41.75;101056.19;5060946;28;20036;-81
2022/03/03 01:46:56;;;;;;;36.63;17.52;;;;;;;9.55;41.45;101061.69;5059020;28;20049;-83
2022/03/03 01:49:41;;;;;;;42.03;21.73;;;;;;;9.69;42.46;101046.22;5061194;28;20051;-82
2022/03/03 01:52:26;;;;;;;42.20;22.80;;;;;;;9.76;41.74;101045.81;5056241;28;20513;-83
2022/03/03 01:55:11;;;;;;;29.17;17.75;;;;;;;9.68;40.81;101032.94;5055102;28;20044;-82
2022/03/03 01:57:58;;;;;;;42.88;22.10;;;;;;;9.68;41.34;101032.94;5068938;28;20059;-82
2022/03/03 02:00:44;;;;;;;41.55;21.38;;;;;;;9.65;41.94;101037.06;5080919;28;20044;-82
2022/03/03 02:03:29;;;;;;;40.63;23.52;;;;;;;9.70;42.05;101025.31;5074993;28;20172;-82
2022/03/03 02:06:14;;;;;;;36.60;17.45;;;;;;;9.70;41.27;101023.38;5077459;28;20036;-81
2022/03/03 02:08:59;;;;;;;31.13;17.20;;;;;;;9.59;41.33;101024.72;5061606;28;20049;-83
2022/03/03 02:11:48;;;;;;;30.15;17.23;;;;;;;9.53;41.43;101019.66;5054337;28;20045;-81
2022/03/03 02:14:46;;;;;;;46.08;23.67;;;;;;;9.60;41.60;101010.00;5060251;28;20049;-80
2022/03/03 02:17:31;;;;;;;37.83;22.27;;;;;;;9.51;41.48;101019.97;5072885;28;20056;-80
2022/03/03 02:20:24;;;;;;;38.58;23.17;;;;;;;9.40;41.72;101010.38;5087462;28;20044;-83
2022/03/03 02:23:09;;;;;;;45.72;22.63;;;;;;;9.41;41.59;101007.38;5088892;28;20040;-81
2022/03/03 02:25:54;;;;;;;36.45;17.88;;;;;;;9.49;41.28;100996.94;5075260;28;20044;-81
2022/03/03 02:28:40;;;;;;;39.97;21.80;;;;;;;9.51;41.81;100994.72;5077659;28;20033;-84
2022/03/03 02:31:24;;;;;;;30.80;17.42;;;;;;;9.50;41.21;101007.47;5060331;28;20041;-82
2022/03/03 02:34:09;;;;;;;31.15;18.42;;;;;;;9.50;41.63;100995.84;5054184;28;20051;-83
2022/03/03 02:36:54;;;;;;;31.65;16.90;;;;;;;9.44;42.46;100992.41;5057836;28;20049;-83
2022/03/03 02:39:39;;;;;;;36.80;17.13;;;;;;;9.28;42.13;100997.31;5070173;28;20402;-82
2022/03/03 02:42:23;;;;;;;42.77;22.80;;;;;;;9.36;41.84;101001.25;5075394;28;20045;-82
2022/03/03 02:45:08;;;;;;;36.40;17.43;;;;;;;9.40;41.98;100994.09;5074166;28;20539;-80
2022/03/03 02:47:53;;;;;;;31.40;17.15;;;;;;;9.33;42.48;100991.81;5074180;28;20282;-81
2022/03/03 02:50:38;;;;;;;30.95;17.55;;;;;;;9.31;42.11;100998.63;5090010;28;20045;-84
2022/03/03 02:53:23;;;;;;;34.83;17.85;;;;;;;9.26;41.90;100993.28;5087646;28;20055;-83
2022/03/03 02:56:09;;;;;;;41.10;23.40;;;;;;;9.35;42.13;100986.88;5077023;28;20045;-84
2022/03/03 02:58:53;;;;;;;32.20;16.52;;;;;;;9.28;42.16;100989.19;5081860;28;20049;-84
2022/03/03 03:01:38;;;;;;;38.22;21.52;;;;;;;9.33;42.26;100983.66;5073255;28;20052;-85
2022/03/03 03:04:23;;;;;;;36.85;20.95;;;;;;;9.17;42.14;100985.03;5079747;28;20048;-84
2022/03/03 03:07:08;;;;;;;32.67;17.88;;;;;;;9.22;42.42;100987.66;5056976;28;20045;-84
2022/03/03 03:09:53;;;;;;;32.00;17.40;;;;;;;9.06;43.39;100994.47;5059850;28;20047;-85
2022/03/03 03:12:38;;;;;;;38.78;17.20;;;;;;;9.27;43.63;100986.75;5059806;28;20045;-84
2022/03/03 03:15:23;;;;;;;32.20;18.55;;;;;;;9.18;42.70;100975.81;5060971;28;20045;-83
2022/03/03 03:18:09;;;;;;;38.63;19.48;;;;;;;9.11;43.18;100975.38;5073081;28;20047;-84
2022/03/03 03:20:54;;;;;;;48.13;22.58;;;;;;;8.91;43.21;100975.75;5079437;28;20485;-83
2022/03/03 03:23:39;;;;;;;32.17;15.60;;;;;;;9.07;42.98;100968.16;5089764;28;20043;-82
2022/03/03 03:26:24;;;;;;;31.60;17.73;;;;;;;8.99;42.97;100966.91;5078370;28;20044;-83
2022/03/03 03:29:09;;;;;;;46.88;22.88;;;;;;;8.77;43.26;100958.63;5092214;28;20508;-84
2022/03/03 03:31:54;;;;;;;35.53;16.75;;;;;;;8.91;43.16;100963.00;5079661;28;20517;-83
2022/03/03 03:34:39;;;;;;;46.78;18.30;;;;;;;8.67;43.56;100961.50;5087909;28;20041;-82
2022/03/03 03:37:24;;;;;;;39.65;17.55;;;;;;;8.59;43.47;100955.66;5073486;28;20049;-84
2022/03/03 03:40:10;;;;;;;37.58;19.10;;;;;;;8.85;43.11;100953.31;5092888;28;20401;-82
2022/03/03 03:42:55;;;;;;;43.08;22.33;;;;;;;8.57;43.75;100948.94;5093802;28;20115;-84
2022/03/03 03:45:39;;;;;;;39.13;21.95;;;;;;;8.68;43.53;100955.00;5073113;28;20044;-83
2022/03/03 03:48:24;;;;;;;31.40;17.83;;;;;;;8.64;43.27;100952.06;5072483;28;20051;-81
2022/03/03 03:51:09;;;;;;;48.33;21.83;;;;;;;8.68;43.47;100949.56;5087786;28;20040;-82
2022/03/03 03:53:53;;;;;;;30.42;16.98;;;;;;;8.68;43.13;100936.84;5078694;28;20052;-83
2022/03/03 03:56:38;;;;;;;46.15;18.20;;;;;;;8.54;43.46;100944.91;5076037;28;20044;-81
2022/03/03 03:59:23;;;;;;;35.20;20.17;;;;;;;8.66;45.15;100943.63;5078827;28;20048;-83
2022/03/03 04:02:08;;;;;;;39.20;22.42;;;;;;;8.76;43.61;100936.13;5071612;28;20071;-80
2022/03/03 04:04:53;;;;;;;29.63;17.65;;;;;;;8.68;43.68;100939.53;5078281;28;20048;-84
2022/03/03 04:07:39;;;;;;;28.83;17.25;;;;;;;8.70;43.56;100936.50;5088436;28;20040;-81
2022/03/03 04:10:25;;;;;;;38.22;21.73;;;;;;;8.46;43.87;100931.22;5081678;28;20044;-81
2022/03/03 04:13:16;;;;;;;28.90;19.60;;;;;;;8.40;43.92;100927.78;5058532;28;20417;-83
2022/03/03 04:16:00;;;;;;;41.40;21.08;;;;;;;8.55;43.34;100924.03;5058042;28;20044;-82
2022/03/03 04:18:45;;;;;;;31.95;17.60;;;;;;;8.52;43.13;100927.34;5051918;28;20040;-82
2022/03/03 04:21:31;;;;;;;32.47;16.33;;;;;;;8.50;43.44;100916.78;5058631;28;20052;-84
2022/03/03 04:24:16;;;;;;;48.83;21.35;;;;;;;8.55;43.45;100918.59;5058176;28;20052;-84
2022/03/03 04:27:01;;;;;;;52.35;17.95;;;;;;;8.46;43.35;100921.19;5055893;28;20425;-83
2022/03/03 04:29:47;;;;;;;61.72;16.23;;;;;;;8.52;43.52;100930.03;5058609;28;20056;-82
2022/03/03 04:32:31;;;;;;;52.83;20.65;;;;;;;8.53;43.53;100921.59;5074316;28;20048;-84
2022/03/03 04:35:16;;;;;;;32.45;18.63;;;;;;;8.52;43.41;100917.31;5077929;28;20403;-84
2022/03/03 04:38:01;;;;;;;37.47;16.33;;;;;;;8.54;43.53;100915.09;5073017;28;20497;-84
2022/03/03 04:40:46;;;;;;;31.30;17.23;;;;;;;8.47;42.75;100913.88;5092587;28;20048;-83
2022/03/03 04:43:31;;;;;;;42.08;22.65;;;;;;;8.48;42.87;100908.13;5057963;28;20051;-84
2022/03/03 04:46:15;;;;;;;40.97;18.17;;;;;;;8.57;42.41;100906.38;5055967;28;20490;-84
2022/03/03 04:49:01;;;;;;;33.67;17.05;;;;;;;8.50;43.35;100905.94;5058072;28;20051;-84
2022/03/03 04:51:46;;;;;;;34.60;20.92;;;;;;;8.62;42.76;100907.38;5060861;28;20040;-84
2022/03/03 04:54:32;;;;;;;26.52;16.55;;;;;;;8.58;42.06;100910.66;5072483;28;20413;-83
2022/03/03 04:57:17;;;;;;;28.90;16.15;;;;;;;8.64;42.03;100900.56;5065474;28;20048;-84
2022/03/03 05:00:05;;;;;;;38.33;18.75;;;;;;;8.58;43.19;100899.84;5067891;28;20071;-83
2022/03/03 05:02:50;;;;;;;35.83;20.75;;;;;;;8.73;43.13;100903.41;5077128;28;20063;-84
2022/03/03 05:05:35;;;;;;;24.65;14.70;;;;;;;8.58;43.27;100896.34;5063417;28;20043;-84
2022/03/03 05:08:20;;;;;;;26.08;16.13;;;;;;;8.48;44.23;100908.13;5064139;28;20052;-84
2022/03/03 05:11:05;;;;;;;30.20;17.83;;;;;;;8.61;44.53;100900.34;5078877;28;20044;-82
2022/03/03 05:13:50;;;;;;;36.15;17.25;;;;;;;8.46;43.82;100894.09;5081081;28;20043;-83
2022/03/03 05:16:35;;;;;;;25.52;15.43;;;;;;;8.51;42.88;100899.44;5071677;28;20036;-82
2022/03/03 05:19:20;;;;;;;37.20;20.48;;;;;;;8.61;42.90;100897.63;5080528;23;20516;-85
2022/03/03 05:22:05;;;;;;;26.17;15.35;;;;;;;8.62;42.50;100902.78;5072208;28;20049;-85
2022/03/03 05:24:52;;;;;;;31.00;16.02;;;;;;;8.56;42.64;100899.34;5058028;28;20401;-85
2022/03/03 05:27:39;;;;;;;36.53;19.00;;;;;;;8.53;43.04;100912.69;5066283;28;20429;-85
2022/03/03 05:30:24;;;;;;;32.15;19.25;;;;;;;8.46;43.54;100907.63;5073148;28;20041;-86
2022/03/03 05:33:09;;;;;;;37.00;18.85;;;;;;;8.42;43.61;100913.94;5058065;28;20045;-86
2022/03/03 05:35:59;;;;;;;22.65;13.82;;;;;;;8.47;44.94;100906.53;5054426;28;20048;-86
2022/03/03 05:38:44;;;;;;;34.58;18.38;;;;;;;8.36;45.85;100910.50;5062741;28;20049;-87
2022/03/03 05:41:29;;;;;;;20.67;13.70;;;;;;;8.62;46.17;100918.22;5066651;28;20037;-87
2022/03/03 05:44:14;;;;;;;32.50;15.32;;;;;;;8.64;47.17;100911.41;5089711;28;20059;-87
2022/03/03 05:47:01;;;;;;;31.58;14.75;;;;;;;8.74;47.46;100921.25;5065584;28;20041;-87
2022/03/03 05:49:50;;;;;;;36.97;19.85;;;;;;;8.68;45.61;100926.00;5076416;28;20048;-86
2022/03/03 05:52:35;;;;;;;37.50;17.23;;;;;;;8.64;47.54;100929.56;5082787;28;20047;-87
2022/03/03 05:55:20;;;;;;;25.48;15.20;;;;;;;8.58;45.59;100924.22;5082205;28;20044;-87
2022/03/03 05:58:09;;;;;;;24.10;14.75;;;;;;;8.30;46.21;100938.78;5074736;28;20059;-85
2022/03/03 06:00:58;;;;;;;31.83;19.55;;;;;;;8.38;46.05;100932.69;5080802;28;20041;-84
2022/03/03 06:03:48;;;;;;;37.63;20.67;;;;;;;8.37;45.64;100939.22;5076481;28;20044;-85
2022/03/03 06:06:36;;;;;;;42.00;21.20;;;;;;;8.23;46.20;100951.84;5073805;28;20054;-85
2022/03/03 06:09:28;;;;;;;33.28;19.40;;;;;;;8.36;46.45;100948.44;5069117;28;20041;-86
2022/03/03 06:12:54;;;;;;;46.33;21.38;;;;;;;8.25;46.14;100951.56;5058060;28;20056;-85
2022/03/03 06:15:42;;;;;;;27.75;17.05;;;;;;;8.22;46.35;100963.81;5063068;28;20040;-85
2022/03/03 06:18:32;;;;;;;34.92;20.23;;;;;;;8.23;46.06;100961.91;5056317;28;20044;-86
2022/03/03 06:21:17;;;;;;;36.13;20.42;;;;;;;8.16;45.70;100949.53;5062889;28;20044;-85
2022/03/03 06:24:03;;;;;;;105.78;21.13;;;;;;;8.35;46.98;100957.66;5068333;28;20044;-86
2022/03/03 06:27:07;;;;;;;33.60;20.73;;;;;;;8.41;45.59;100961.09;5067355;28;20041;-85
2022/03/03 06:29:55;;;;;;;40.40;21.27;;;;;;;8.35;46.11;100954.97;5060660;28;20043;-84
2022/03/03 06:32:40;;;;;;;42.00;21.88;;;;;;;8.20;45.99;100968.69;5082033;28;20036;-85
2022/03/03 06:35:24;;;;;;;37.27;18.23;;;;;;;8.26;46.16;100962.13;5076984;28;20040;-86
2022/03/03 06:38:09;;;;;;;29.67;16.48;;;;;;;8.22;46.30;100968.41;5075024;28;20055;-85
2022/03/03 06:40:57;;;;;;;29.27;17.02;;;;;;;8.30;45.66;100974.00;5075641;28;20067;-86
2022/03/03 06:43:42;;;;;;;43.63;22.38;;;;;;;8.32;46.27;100971.00;5079886;28;20044;-85
2022/03/03 06:46:28;;;;;;;60.05;21.92;;;;;;;8.37;46.21;100977.16;5068848;28;20045;-86
2022/03/03 06:49:13;;;;;;;56.08;22.00;;;;;;;8.32;46.03;100979.13;5075559;28;20041;-86
2022/03/03 06:52:02;;;;;;;27.70;15.77;;;;;;;8.30;46.45;100976.72;5079408;28;20044;-86
2022/03/03 06:54:51;;;;;;;35.35;19.55;;;;;;;8.33;46.21;100976.13;5077340;28;20044;-86
2022/03/03 06:57:38;;;;;;;37.20;20.48;;;;;;;8.19;46.15;100969.78;5075459;28;20119;-86
2022/03/03 07:00:28;;;;;;;42.58;23.58;;;;;;;8.18;45.92;100981.72;5079358;28;20036;-86
2022/03/03 07:03:14;;;;;;;46.80;24.25;;;;;;;8.24;46.13;100983.25;5076927;28;20040;-86
2022/03/03 07:06:00;;;;;;;36.75;21.45;;;;;;;8.27;46.07;100984.59;5077158;28;20036;-86
2022/03/03 07:08:46;;;;;;;34.47;21.42;;;;;;;8.24;46.89;100980.56;5080447;28;20036;-87
2022/03/03 07:11:31;;;;;;;44.20;23.75;;;;;;;8.35;46.79;100986.66;5079464;28;20039;-86
2022/03/03 07:14:18;;;;;;;42.58;21.67;;;;;;;8.37;47.07;100982.59;5078629;28;20041;-87
2022/03/03 07:17:05;;;;;;;40.40;23.30;;;;;;;8.42;47.16;100982.50;5081359;28;20037;-86
2022/03/03 07:20:03;;;;;;;40.00;23.73;;;;;;;8.48;46.93;100986.72;5072995;28;20041;-85
2022/03/03 07:23:17;;;;;;;54.78;24.83;;;;;;;8.64;46.68;100986.47;5073257;28;20041;-85
2022/03/03 07:26:05;;;;;;;50.63;23.75;;;;;;;8.73;46.40;100990.97;5076277;28;20048;-85
2022/03/03 07:28:52;;;;;;;47.05;23.60;;;;;;;9.01;45.48;100998.06;5074250;28;20045;-85
2022/03/03 07:31:47;;;;;;;47.88;26.85;;;;;;;9.01;45.08;100986.41;5080112;28;20062;-85
2022/03/03 07:34:35;;;;;;;60.67;28.40;;;;;;;9.05;44.49;100987.41;5076234;28;20409;-85
2022/03/03 07:37:25;;;;;;;48.20;26.35;;;;;;;9.16;43.99;100983.44;5074527;28;20045;-85
2022/03/03 07:40:10;;;;;;;47.72;25.45;;;;;;;9.04;44.64;100991.22;5079814;28;20043;-85
2022/03/03 07:42:55;;;;;;;49.15;28.45;;;;;;;9.05;44.39;100995.56;5075686;28;20048;-85
2022/03/03 07:45:44;;;;;;;53.63;31.27;;;;;;;9.10;44.60;100995.47;5079492;28;20044;-85
2022/03/03 07:48:29;;;;;;;71.70;33.38;;;;;;;9.41;43.34;100996.53;5076409;28;20044;-84
2022/03/03 07:51:15;;;;;;;58.08;31.67;;;;;;;9.22;43.56;100995.00;5071444;28;20040;-85
2022/03/03 07:54:00;;;;;;;57.55;30.85;;;;;;;9.35;43.03;100989.59;5069728;28;20052;-85
2022/03/03 07:56:51;;;;;;;46.35;25.77;;;;;;;9.30;43.14;100991.59;5065868;28;20037;-85
2022/03/03 07:59:36;;;;;;;64.50;32.47;;;;;;;9.15;42.72;100984.53;5057314;28;20040;-82
2022/03/03 08:02:23;;;;;;;67.55;33.15;;;;;;;9.29;43.42;100990.81;5059412;28;20037;-84
2022/03/03 08:05:10;;;;;;;65.97;31.88;;;;;;;9.31;43.30;100985.88;5066851;28;20497;-83
2022/03/03 08:07:56;;;;;;;57.40;32.03;;;;;;;9.75;42.35;100987.19;5064882;28;20028;-84
2022/03/03 08:10:44;;;;;;;53.08;32.80;;;;;;;9.64;42.57;100983.88;5060498;28;20485;-83
2022/03/03 08:13:30;;;;;;;53.63;28.88;;;;;;;9.73;43.26;100987.50;5068837;28;20032;-83
2022/03/03 08:16:15;;;;;;;55.38;29.88;;;;;;;10.10;40.87;100991.06;5068246;28;20044;-85
2022/03/03 08:19:02;;;;;;;53.63;29.73;;;;;;;10.07;42.08;100984.31;5070894;28;20037;-86
2022/03/03 08:21:48;;;;;;;55.38;29.75;;;;;;;10.36;41.60;100985.91;5070843;28;20049;-85
2022/03/03 08:24:34;;;;;;;48.38;28.85;;;;;;;10.25;40.85;100991.56;5076685;28;20052;-84
2022/03/03 08:27:34;;;;;;;49.60;28.17;;;;;;;10.77;41.39;100986.53;5064778;28;20386;-71
2022/03/03 08:30:20;;;;;;;50.13;29.23;;;;;;;10.83;39.23;100979.03;5052257;28;20033;-71
2022/03/03 08:33:18;;;;;;;52.72;30.80;;;;;;;10.15;41.00;100977.38;5049022;28;20055;-73
2022/03/03 08:36:14;;;;;;;55.28;29.90;;;;;;;9.86;40.74;100983.13;5044086;28;20048;-72
2022/03/03 08:39:04;;;;;;;51.58;29.48;;;;;;;9.85;41.50;100976.13;5043347;28;20400;-73
2022/03/03 08:41:54;;;;;;;58.08;31.50;;;;;;;9.94;40.81;100968.88;5045559;28;20040;-73
2022/03/03 08:44:42;;;;;;;57.60;30.85;;;;;;;10.29;40.62;100972.72;5045828;28;20052;-74
2022/03/03 08:47:28;;;;;;;50.40;30.75;;;;;;;10.19;40.49;100962.91;5048090;28;20044;-74
2022/03/03 08:50:14;;;;;;;59.67;30.85;;;;;;;10.15;40.61;100961.88;5051291;28;20056;-74
2022/03/03 08:52:59;;;;;;;56.88;31.02;;;;;;;10.15;40.41;100961.88;5047390;28;20068;-74
2022/03/03 08:55:44;;;;;;;57.97;30.83;;;;;;;10.08;40.10;100969.63;5031150;28;20041;-74
2022/03/03 08:58:29;;;;;;;45.45;23.75;;;;;;;10.05;40.38;100975.69;5049813;28;20044;-74
2022/03/03 09:01:14;;;;;;;40.03;24.45;;;;;;;10.13;39.95;100976.88;5048684;28;20052;-74
2022/03/03 09:03:59;;;;;;;41.35;25.00;;;;;;;10.15;39.73;100961.06;5048368;28;20048;-74
2022/03/03 09:06:45;;;;;;;51.10;29.80;;;;;;;10.29;39.96;100962.66;5049100;28;20044;-76
2022/03/03 09:09:30;;;;;;;55.28;29.38;;;;;;;10.42;39.85;100958.28;5052707;28;20120;-74
2022/03/03 09:12:15;;;;;;;52.03;30.15;;;;;;;10.58;39.50;100954.09;5048463;28;20523;-73
2022/03/03 09:15:00;;;;;;;37.38;23.23;;;;;;;10.54;39.91;100958.53;5048153;28;20052;-76
2022/03/03 09:17:45;;;;;;;59.70;30.90;;;;;;;10.52;39.20;100962.66;5048307;28;20412;-73
2022/03/03 09:20:30;;;;;;;43.88;22.38;;;;;;;10.59;39.07;100971.22;5048296;28;20052;-74
2022/03/03 09:23:15;;;;;;;39.45;23.35;;;;;;;10.65;38.47;100968.06;5048240;28;20048;-73
2022/03/03 09:26:00;;;;;;;39.20;23.40;;;;;;;10.57;38.39;100963.34;5047118;28;20408;-74
2022/03/03 09:28:45;;;;;;;42.17;22.58;;;;;;;10.59;38.07;100969.28;5048148;28;20052;-74
2022/03/03 09:31:30;;;;;;;33.88;22.00;;;;;;;10.73;37.29;100961.06;5049122;28;20068;-76
2022/03/03 09:34:15;;;;;;;;;;;;;;;10.80;37.60;100955.19;5047237;28;20523;-74
2022/03/03 09:36:59;;;;;;;44.05;26.25;;;;;;;10.85;37.91;100952.34;5045384;28;19913;-74
2022/03/03 09:39:46;;;;;;;36.63;21.90;;;;;;;10.91;37.06;100951.09;5036151;28;20048;-74
2022/03/03 09:42:33;;;;;;;47.78;29.50;;;;;;;10.96;37.49;100946.34;5034691;28;20044;-74
2022/03/03 09:45:18;;;;;;;46.92;26.60;;;;;;;11.00;37.09;100944.59;5037427;28;20072;-76
2022/03/03 09:48:07;;;;;;;46.78;26.92;;;;;;;10.99;37.02;100945.72;5034481;28;20045;-73
2022/03/03 09:50:52;;;;;;;47.40;29.10;;;;;;;10.96;37.57;100932.72;5034336;28;20508;-75
2022/03/03 09:53:40;;;;;;;57.38;31.13;;;;;;;10.98;37.71;100932.41;5034275;28;20049;-74
2022/03/03 09:56:25;;;;;;;47.15;27.92;;;;;;;11.05;37.06;100935.50;5034255;28;20045;-73
2022/03/03 09:59:10;;;;;;;38.40;21.17;;;;;;;11.13;37.42;100932.81;5032229;28;20056;-74
2022/03/03 10:02:05;;;;;;;37.17;21.20;;;;;;;10.97;36.94;100928.88;5032246;28;20040;-75
2022/03/03 10:04:55;;;;;;;46.08;26.23;;;;;;;11.17;37.51;100932.19;5028658;28;20539;-73
2022/03/03 10:07:40;;;;;;;48.90;27.60;;;;;;;11.40;37.80;100922.81;5044787;28;20040;-74
2022/03/03 10:10:25;;;;;;;37.22;22.10;;;;;;;11.42;37.64;100923.31;5029496;28;20081;-73
2022/03/03 10:13:14;;;;;;;39.42;22.02;;;;;;;11.44;37.61;100915.63;5030060;28;20052;-74
2022/03/03 10:16:02;;;;;;;49.40;28.85;;;;;;;11.58;36.71;100916.28;5034068;28;20052;-74
2022/03/03 10:19:04;;;;;;;50.80;28.00;;;;;;;11.51;36.38;100910.53;5030497;28;20044;-75
2022/03/03 10:21:49;;;;;;;41.17;24.85;;;;;;;11.57;36.18;100904.63;5031761;28;20524;-74
2022/03/03 10:24:34;;;;;;;33.05;20.55;;;;;;;11.41;35.74;100905.38;5037442;28;20048;-74
2022/03/03 10:27:19;;;;;;;43.17;23.52;;;;;;;11.44;36.99;100908.25;5027921;28;20416;-74
2022/03/03 10:30:07;;;;;;;45.95;28.10;;;;;;;11.54;36.95;100896.25;5020766;28;20113;-73
2022/03/03 10:32:52;;;;;;;45.03;26.90;;;;;;;11.57;36.22;100895.66;5029208;28;20052;-75
2022/03/03 10:35:37;;;;;;;39.15;21.00;;;;;;;11.46;36.20;100905.22;5024269;28;20045;-73
2022/03/03 10:38:22;;;;;;;36.28;22.17;;;;;;;11.49;36.29;100893.69;5028661;28;20044;-73
2022/03/03 10:41:07;;;;;;;43.42;24.45;;;;;;;11.70;35.86;100885.72;5030023;28;20406;-70
2022/03/03 10:43:52;;;;;;;45.35;22.95;;;;;;;11.73;36.10;100876.97;5024817;28;20044;-72
2022/03/03 10:46:40;;;;;;;52.17;32.08;;;;;;;11.71;36.35;100879.97;5025680;28;20045;-72
2022/03/03 10:49:27;;;;;;;56.83;32.25;;;;;;;11.77;37.17;100872.47;5029732;28;20056;-72
2022/03/03 10:52:15;;;;;;;54.60;32.05;;;;;;;11.77;37.16;100867.84;5023053;28;20398;-72
2022/03/03 10:55:10;;;;;;;64.85;32.63;;;;;;;11.91;37.58;100868.47;5024082;28;20052;-72
2022/03/03 10:58:00;;;;;;;54.87;31.63;;;;;;;12.04;36.39;100869.44;5019079;28;20041;-73
2022/03/03 11:00:45;;;;;;;53.75;32.28;;;;;;;12.04;36.68;100863.19;5029939;28;20396;-73
2022/03/03 11:03:30;;;;;;;38.50;24.55;;;;;;;12.11;36.89;100853.41;5029783;28;20053;-73
2022/03/03 11:06:22;;;;;;;47.80;29.80;;;;;;;12.15;35.96;100856.28;5022267;28;20061;-72
2022/03/03 11:09:07;;;;;;;53.50;29.70;;;;;;;12.27;35.59;100843.59;5020167;28;20052;-72
2022/03/03 11:11:53;;;;;;;42.40;22.20;;;;;;;12.33;34.92;100842.31;5029568;28;20053;-73
2022/03/03 11:14:39;;;;;;;38.38;22.95;;;;;;;12.39;35.26;100840.22;5030388;28;20041;-72
2022/03/03 11:17:24;;;;;;;49.55;30.95;;;;;;;12.33;35.42;100827.88;5030080;28;20041;-72
2022/03/03 11:20:12;;;;;;;51.78;32.05;;;;;;;12.43;35.29;100827.53;5030652;28;20053;-73
2022/03/03 11:22:56;;;;;;;47.72;30.55;;;;;;;12.56;35.16;100823.81;5036800;28;20048;-72
2022/03/03 11:25:42;;;;;;;43.70;25.88;;;;;;;12.56;35.42;100812.09;5040027;28;20039;-72
2022/03/03 11:28:34;;;;;;;55.88;30.20;;;;;;;12.68;35.53;100807.56;5043200;28;20040;-72
2022/03/03 11:31:30;;;;;;;49.55;29.77;;;;;;;12.64;34.78;100820.25;5038800;28;20045;-73
2022/03/03 11:34:30;;;;;;;51.90;28.85;;;;;;;12.63;34.92;100815.13;5045475;28;20242;-72
2022/03/03 11:37:23;;;;;;;48.83;28.80;;;;;;;12.57;35.08;100800.06;5024760;28;20026;-73
2022/03/03 11:40:16;;;;;;;51.15;29.48;;;;;;;12.65;34.93;100800.00;5035866;28;20045;-72
2022/03/03 11:43:11;;;;;;;57.67;30.75;;;;;;;12.63;34.60;100787.84;5026307;28;20040;-72
2022/03/03 11:45:59;;;;;;;55.65;30.75;;;;;;;12.72;35.70;100786.69;5026139;28;20053;-73
2022/03/03 11:48:44;;;;;;;48.03;28.70;;;;;;;12.89;35.04;100795.91;5032279;28;20049;-72
2022/03/03 11:51:34;;;;;;;36.67;22.15;;;;;;;12.96;34.20;100782.53;5032986;28;20072;-72
2022/03/03 11:54:30;;;;;;;50.50;30.23;;;;;;;12.96;34.91;100774.34;5030839;28;20065;-72
2022/03/03 11:57:15;;;;;;;45.78;28.33;;;;;;;13.07;35.88;100764.66;5031528;28;20037;-72
2022/03/03 12:00:05;;;;;;;33.47;22.25;;;;;;;13.14;34.72;100762.25;5027654;28;20041;-72
2022/03/03 12:03:07;;;;;;;55.10;30.70;;;;;;;13.22;34.51;100762.19;5035082;28;20046;-72
2022/03/03 12:06:14;;;;;;;45.88;29.52;;;;;;;13.27;34.58;100758.44;5026842;28;20046;-72
2022/03/03 12:09:30;;;;;;;48.33;29.42;;;;;;;13.31;34.68;100745.72;5033621;28;20049;-72
2022/03/03 12:12:19;;;;;;;38.53;23.08;;;;;;;13.53;34.80;100736.41;5031528;28;20040;-72
2022/03/03 12:15:04;;;;;;;48.08;29.02;;;;;;;13.67;34.37;100723.25;5030411;28;20041;-72
2022/03/03 12:17:58;;;;;;;56.35;29.98;;;;;;;13.55;34.47;100725.94;5041729;28;20042;-73
2022/03/03 12:20:45;;;;;;;47.75;28.65;;;;;;;13.87;33.91;100713.41;5017878;28;20041;-72
2022/03/03 12:23:35;;;;;;;45.97;27.60;;;;;;;14.02;33.79;100705.38;5030840;28;20049;-73
2022/03/03 12:26:23;;;;;;;44.20;28.33;;;;;;;14.11;33.62;100708.03;5028087;28;20053;-72
2022/03/03 12:29:38;;;;;;;46.35;28.13;;;;;;;14.02;34.04;100701.84;5021613;28;20050;-72
2022/03/03 12:32:29;;;;;;;95.00;56.55;;;;;;;14.08;33.94;100686.81;5023318;23;20433;-72
2022/03/03 12:35:29;;;;;;;43.33;28.55;;;;;;;14.07;34.21;100674.28;4978220;28;20046;-71
2022/03/03 12:38:15;;;;;;;44.00;27.48;;;;;;;14.16;34.27;100675.00;4972085;28;20409;-72
2022/03/03 12:40:59;;;;;;;;;;;;;;;14.45;33.68;100666.59;4964988;28;20416;-72
2022/03/03 12:43:44;;;;;;;44.20;26.52;;;;;;;14.57;33.63;100662.28;4970476;28;19914;-73
2022/03/03 12:46:29;;;;;;;41.03;26.77;;;;;;;14.68;34.19;100663.41;4965539;28;20035;-73